createdAt,value
2022-12-03T00:02:05.727Z,33.25
2022-12-03T00:04:33.069Z,31.20
2022-12-03T00:07:00.074Z,32.30
2022-12-03T00:09:27.101Z,32.65
2022-12-03T00:11:54.166Z,33.50
2022-12-03T00:14:21.420Z,34.20
2022-12-03T00:16:48.426Z,33.90
2022-12-03T00:19:15.600Z,34.63
2022-12-03T00:21:42.780Z,33.78
2022-12-03T00:24:09.850Z,34.50
2022-12-03T00:26:36.865Z,35.22
2022-12-03T00:29:04.042Z,33.72
2022-12-03T00:31:31.239Z,35.17
2022-12-03T00:33:58.458Z,33.40
2022-12-03T00:36:25.471Z,36.60
2022-12-03T00:38:54.353Z,34.30
2022-12-03T00:41:21.465Z,34.75
2022-12-03T00:43:48.573Z,33.33
2022-12-03T00:46:19.859Z,34.75
2022-12-03T00:48:48.544Z,35.20
2022-12-03T00:51:15.750Z,34.70
2022-12-03T00:53:42.860Z,31.58
2022-12-03T00:56:10.059Z,31.98
2022-12-03T00:58:37.127Z,33.17
2022-12-03T01:01:04.210Z,33.63
2022-12-03T01:03:31.285Z,34.05
2022-12-03T01:05:58.434Z,34.90
2022-12-03T01:08:25.494Z,35.53
2022-12-03T01:10:52.510Z,32.90
2022-12-03T01:13:19.603Z,31.35
2022-12-03T01:15:46.867Z,33.67
2022-12-03T01:18:13.929Z,32.78
2022-12-03T01:20:41.117Z,32.67
2022-12-03T01:23:08.166Z,32.92
2022-12-03T01:25:35.317Z,31.00
2022-12-03T01:28:02.466Z,30.35
2022-12-03T01:30:29.583Z,32.00
2022-12-03T01:32:56.641Z,30.13
2022-12-03T01:35:23.705Z,30.45
2022-12-03T01:37:50.830Z,30.98
2022-12-03T01:40:21.438Z,29.83
2022-12-03T01:42:48.493Z,29.40
2022-12-03T01:45:23.918Z,28.50
2022-12-03T01:47:51.437Z,29.70
2022-12-03T01:50:27.598Z,28.75
2022-12-03T01:52:58.573Z,26.88
2022-12-03T01:55:27.087Z,27.38
2022-12-03T01:57:57.797Z,27.85
2022-12-03T02:00:27.373Z,27.73
2022-12-03T02:03:07.047Z,25.63
2022-12-03T02:05:34.694Z,26.58
2022-12-03T02:08:02.018Z,25.55
2022-12-03T02:10:34.884Z,25.50
2022-12-03T02:13:08.188Z,26.80
2022-12-03T02:15:38.011Z,27.40
2022-12-03T02:18:05.540Z,26.55
2022-12-03T02:20:41.890Z,29.92
2022-12-03T02:23:14.210Z,28.35
2022-12-03T02:25:41.748Z,27.48
2022-12-03T02:28:10.202Z,26.75
2022-12-03T02:30:37.659Z,30.65
2022-12-03T02:33:05.154Z,28.40
2022-12-03T02:35:35.348Z,27.27
2022-12-03T02:38:27.464Z,30.38
2022-12-03T02:40:58.828Z,27.55
2022-12-03T02:43:26.051Z,29.33
2022-12-03T02:45:56.826Z,29.83
2022-12-03T02:48:33.918Z,28.55
2022-12-03T02:51:07.245Z,27.80
2022-12-03T02:53:42.437Z,28.58
2022-12-03T02:56:14.614Z,28.23
2022-12-03T02:58:43.866Z,28.83
2022-12-03T03:01:11.403Z,30.25
2022-12-03T03:03:39.187Z,27.67
2022-12-03T03:06:08.334Z,28.23
2022-12-03T03:08:37.838Z,27.85
2022-12-03T03:11:05.330Z,28.13
2022-12-03T03:13:34.629Z,29.58
2022-12-03T03:16:07.091Z,28.60
2022-12-03T03:18:35.637Z,27.15
2022-12-03T03:21:04.084Z,27.05
2022-12-03T03:23:31.236Z,28.27
2022-12-03T03:26:10.811Z,28.67
2022-12-03T03:28:43.304Z,27.38
2022-12-03T03:31:14.307Z,28.17
2022-12-03T03:33:44.336Z,28.20
2022-12-03T03:36:12.273Z,28.00
2022-12-03T03:38:41.749Z,28.08
2022-12-03T03:41:10.245Z,27.08
2022-12-03T03:43:39.012Z,27.15
2022-12-03T03:46:07.388Z,29.27
2022-12-03T03:48:35.573Z,26.55
2022-12-03T03:51:08.904Z,28.52
2022-12-03T03:53:42.667Z,29.52
2022-12-03T03:56:10.873Z,28.08
2022-12-03T03:58:38.865Z,27.48
2022-12-03T04:01:06.498Z,27.60
2022-12-03T04:03:34.594Z,29.38
2022-12-03T04:06:01.855Z,28.48
2022-12-03T04:08:28.997Z,29.55
2022-12-03T04:11:14.646Z,28.70
2022-12-03T04:13:41.886Z,30.25
2022-12-03T04:16:10.646Z,27.42
2022-12-03T04:18:43.526Z,27.85
2022-12-03T04:21:35.501Z,31.52
2022-12-03T04:24:03.610Z,29.35
2022-12-03T04:26:50.051Z,29.67
2022-12-03T04:29:18.992Z,30.40
2022-12-03T04:32:05.059Z,29.33
2022-12-03T04:34:51.153Z,29.70
2022-12-03T04:37:18.501Z,30.15
2022-12-03T04:39:45.708Z,30.60
2022-12-03T04:42:12.812Z,30.35
2022-12-03T04:44:40.122Z,29.77
2022-12-03T04:47:18.431Z,29.95
2022-12-03T04:49:51.103Z,30.63
2022-12-03T04:52:20.449Z,30.73
2022-12-03T04:54:47.688Z,28.60
2022-12-03T04:57:15.062Z,29.80
2022-12-03T04:59:42.254Z,30.38
2022-12-03T05:02:09.544Z,29.67
2022-12-03T05:04:36.771Z,30.02
2022-12-03T05:07:04.148Z,28.50
2022-12-03T05:09:32.734Z,28.20
2022-12-03T05:11:59.808Z,28.13
2022-12-03T05:14:26.845Z,31.00
2022-12-03T05:16:53.996Z,29.80
2022-12-03T05:19:21.095Z,31.08
2022-12-03T05:21:48.383Z,30.80
2022-12-03T05:24:15.471Z,29.10
2022-12-03T05:26:42.477Z,28.92
2022-12-03T05:29:09.545Z,28.83
2022-12-03T05:31:36.753Z,29.42
2022-12-03T05:34:04.395Z,29.13
2022-12-03T05:36:31.681Z,29.40
2022-12-03T05:38:58.724Z,28.55
2022-12-03T05:42:01.171Z,29.17
2022-12-03T05:44:28.150Z,29.15
2022-12-03T05:46:55.157Z,29.63
2022-12-03T05:49:22.199Z,29.58
2022-12-03T05:51:51.460Z,29.05
2022-12-03T05:54:22.305Z,29.30
2022-12-03T05:56:49.328Z,31.10
2022-12-03T05:59:16.360Z,29.33
2022-12-03T06:01:43.441Z,28.42
2022-12-03T06:04:10.566Z,27.60
2022-12-03T06:06:37.929Z,29.35
2022-12-03T06:09:05.281Z,29.00
2022-12-03T06:11:37.055Z,29.70
2022-12-03T06:14:04.224Z,29.77
2022-12-03T06:16:32.695Z,27.50
2022-12-03T06:19:00.752Z,28.48
2022-12-03T06:21:28.921Z,28.70
2022-12-03T06:23:55.971Z,29.40
2022-12-03T06:26:23.172Z,28.77
2022-12-03T06:28:50.344Z,27.17
2022-12-03T06:31:17.411Z,26.75
2022-12-03T06:33:44.503Z,27.73
2022-12-03T06:36:11.532Z,28.92
2022-12-03T06:38:38.585Z,27.42
2022-12-03T06:41:05.922Z,28.33
2022-12-03T06:43:33.154Z,28.55
2022-12-03T06:46:00.220Z,26.83
2022-12-03T06:48:27.259Z,27.70
2022-12-03T06:50:54.358Z,28.10
2022-12-03T06:53:21.519Z,28.85
2022-12-03T06:55:48.601Z,30.40
2022-12-03T06:58:15.529Z,28.85
2022-12-03T07:00:42.507Z,30.35
2022-12-03T07:03:09.818Z,30.35
2022-12-03T07:05:37.375Z,31.15
2022-12-03T07:08:04.559Z,30.88
2022-12-03T07:10:31.866Z,31.00
2022-12-03T07:12:58.907Z,30.30
2022-12-03T07:15:25.879Z,32.20
2022-12-03T07:17:52.900Z,32.22
2022-12-03T07:20:19.887Z,32.17
2022-12-03T07:22:46.872Z,30.00
2022-12-03T07:25:19.556Z,32.65
2022-12-03T07:27:49.948Z,32.20
2022-12-03T07:30:17.152Z,32.05
2022-12-03T07:32:44.167Z,36.00
2022-12-03T07:35:11.426Z,33.08
2022-12-03T07:37:38.489Z,34.92
2022-12-03T07:40:06.789Z,35.78
2022-12-03T07:42:33.848Z,32.38
2022-12-03T07:45:00.838Z,34.20
2022-12-03T07:47:27.924Z,34.22
2022-12-03T07:49:55.047Z,33.65
2022-12-03T07:52:22.078Z,33.85
2022-12-03T07:54:49.247Z,34.63
2022-12-03T07:57:16.194Z,39.35
2022-12-03T07:59:43.413Z,38.88
2022-12-03T08:02:10.599Z,39.15
2022-12-03T08:04:37.815Z,39.75
2022-12-03T08:07:06.056Z,39.95
2022-12-03T08:09:33.271Z,41.60
2022-12-03T08:12:06.602Z,43.47
2022-12-03T08:14:33.655Z,44.72
2022-12-03T08:17:01.059Z,40.42
2022-12-03T08:19:28.251Z,43.17
2022-12-03T08:22:01.101Z,45.20
2022-12-03T08:24:30.263Z,43.03
2022-12-03T08:26:57.478Z,45.60
2022-12-03T08:29:25.026Z,44.97
2022-12-03T08:31:55.182Z,46.03
2022-12-03T08:34:28.074Z,46.08
2022-12-03T08:37:15.989Z,43.95
2022-12-03T08:39:51.212Z,46.63
2022-12-03T08:42:42.939Z,44.75
2022-12-03T08:45:39.769Z,46.17
2022-12-03T08:48:19.173Z,46.15
2022-12-03T08:50:46.860Z,43.75
2022-12-03T08:53:13.782Z,47.92
2022-12-03T08:55:52.900Z,47.42
2022-12-03T08:58:38.911Z,46.30
2022-12-03T09:01:11.966Z,47.03
2022-12-03T09:03:48.545Z,46.10
2022-12-03T09:06:15.610Z,45.00
2022-12-03T09:08:42.709Z,42.97
2022-12-03T09:11:10.153Z,45.40
2022-12-03T09:13:37.157Z,43.97
2022-12-03T09:16:04.382Z,50.25
2022-12-03T09:18:31.472Z,44.17
2022-12-03T09:21:01.345Z,45.10
2022-12-03T09:23:28.425Z,47.05
2022-12-03T09:25:55.372Z,43.45
2022-12-03T09:28:22.414Z,45.55
2022-12-03T09:30:49.552Z,44.47
2022-12-03T09:33:16.547Z,46.05
2022-12-03T09:35:43.688Z,48.50
2022-12-03T09:38:11.276Z,45.38
2022-12-03T09:40:41.532Z,43.80
2022-12-03T09:43:08.705Z,44.08
2022-12-03T09:45:36.005Z,45.05
2022-12-03T09:48:04.112Z,45.53
2022-12-03T09:50:32.291Z,44.38
2022-12-03T09:53:03.796Z,43.20
2022-12-03T09:55:31.500Z,42.05
2022-12-03T09:58:00.660Z,42.83
2022-12-03T10:00:30.620Z,40.22
2022-12-03T10:03:02.553Z,40.40
2022-12-03T10:05:30.100Z,40.03
2022-12-03T10:08:08.520Z,38.97
2022-12-03T10:10:37.254Z,39.20
2022-12-03T10:13:05.512Z,41.35
2022-12-03T10:15:32.872Z,41.72
2022-12-03T10:18:07.152Z,42.00
2022-12-03T10:20:34.274Z,43.70
2022-12-03T10:23:27.950Z,41.28
2022-12-03T10:26:05.921Z,43.33
2022-12-03T10:28:40.032Z,44.67
2022-12-03T10:31:11.457Z,42.53
2022-12-03T10:33:43.044Z,42.00
2022-12-03T10:36:23.402Z,43.33
2022-12-03T10:39:16.237Z,42.65
2022-12-03T10:41:44.968Z,43.20
2022-12-03T10:44:25.509Z,42.72
2022-12-03T10:47:11.653Z,45.22
2022-12-03T10:49:41.113Z,44.90
2022-12-03T10:52:25.998Z,42.88
2022-12-03T10:54:53.801Z,42.60
2022-12-03T10:57:21.113Z,42.53
2022-12-03T10:59:48.339Z,44.50
2022-12-03T11:02:25.211Z,43.88
2022-12-03T11:04:52.926Z,42.97
2022-12-03T11:07:22.427Z,42.83
2022-12-03T11:09:52.362Z,41.83
2022-12-03T11:12:27.826Z,42.67
2022-12-03T11:14:55.290Z,44.40
2022-12-03T11:17:44.973Z,42.25
2022-12-03T11:20:25.538Z,44.03
2022-12-03T11:22:55.171Z,44.25
2022-12-03T11:25:25.367Z,43.67
2022-12-03T11:28:13.460Z,42.58
2022-12-03T11:30:53.493Z,42.63
2022-12-03T11:33:23.587Z,41.08
2022-12-03T11:36:03.544Z,43.08
2022-12-03T11:38:52.430Z,44.97
2022-12-03T11:41:27.609Z,41.55
2022-12-03T11:43:57.521Z,42.38
2022-12-03T11:46:36.373Z,40.55
2022-12-03T11:49:23.650Z,43.15
2022-12-03T11:51:51.169Z,41.80
2022-12-03T11:54:21.892Z,40.58
2022-12-03T11:56:49.820Z,40.63
2022-12-03T11:59:18.479Z,42.75
2022-12-03T12:01:46.279Z,38.85
2022-12-03T12:04:32.666Z,40.53
2022-12-03T12:07:01.347Z,43.05
2022-12-03T12:09:51.110Z,45.13
2022-12-03T12:12:21.078Z,45.47
2022-12-03T12:14:48.112Z,46.03
2022-12-03T12:17:36.229Z,45.10
2022-12-03T12:20:25.566Z,47.55
2022-12-03T12:22:55.141Z,47.22
2022-12-03T12:25:53.986Z,45.50
2022-12-03T12:28:21.724Z,43.63
2022-12-03T12:30:48.884Z,41.33
2022-12-03T12:33:23.480Z,41.63
2022-12-03T12:35:51.476Z,41.95
2022-12-03T12:38:20.880Z,38.72
2022-12-03T12:40:50.484Z,41.15
2022-12-03T12:43:29.479Z,41.30
2022-12-03T12:46:18.828Z,42.78
2022-12-03T12:48:48.840Z,41.90
2022-12-03T12:51:20.781Z,42.40
2022-12-03T12:53:49.014Z,44.22
2022-12-03T12:56:31.869Z,41.25
2022-12-03T12:59:13.215Z,41.30
2022-12-03T13:01:42.223Z,40.63
2022-12-03T13:04:18.864Z,42.38
2022-12-03T13:06:48.998Z,41.47
2022-12-03T13:09:19.300Z,40.67
2022-12-03T13:11:52.613Z,42.35
2022-12-03T13:14:23.313Z,44.45
2022-12-03T13:16:55.751Z,41.88
2022-12-03T13:19:26.645Z,41.95
2022-12-03T13:22:00.893Z,43.85
2022-12-03T13:24:54.569Z,46.53
2022-12-03T13:27:32.710Z,45.03
2022-12-03T13:30:01.289Z,45.15
2022-12-03T13:32:34.081Z,45.10
2022-12-03T13:35:27.067Z,43.13
2022-12-03T13:37:54.110Z,44.75
2022-12-03T13:40:28.199Z,45.63
2022-12-03T13:42:55.324Z,45.45
2022-12-03T13:45:26.493Z,46.80
2022-12-03T13:48:03.128Z,47.65
2022-12-03T13:50:44.898Z,45.72
2022-12-03T13:53:28.164Z,44.42
2022-12-03T13:56:14.675Z,46.95
2022-12-03T14:01:09.065Z,42.38
2022-12-03T14:03:36.267Z,45.63
2022-12-03T14:06:03.484Z,45.05
2022-12-03T14:08:31.184Z,42.03
2022-12-03T14:11:00.520Z,42.67
2022-12-03T14:13:28.139Z,44.67
2022-12-03T14:15:55.490Z,42.55
2022-12-03T14:18:22.754Z,42.45
2022-12-03T14:20:49.921Z,43.08
2022-12-03T14:23:17.172Z,42.80
2022-12-03T14:25:44.255Z,42.85
2022-12-03T14:28:11.443Z,43.42
2022-12-03T14:30:38.778Z,42.58
2022-12-03T14:33:05.788Z,42.50
2022-12-03T14:35:33.061Z,41.42
2022-12-03T14:38:00.302Z,41.90
2022-12-03T14:40:27.556Z,42.65
2022-12-03T14:42:54.781Z,43.67
2022-12-03T14:45:22.997Z,46.30
2022-12-03T14:47:50.180Z,45.03
2022-12-03T14:50:17.404Z,44.67
2022-12-03T14:52:44.605Z,47.85
2022-12-03T14:55:11.713Z,44.72
2022-12-03T14:57:39.002Z,43.20
2022-12-03T15:00:07.952Z,40.88
2022-12-03T15:02:35.218Z,39.70
2022-12-03T15:05:02.634Z,42.60
2022-12-03T15:07:29.881Z,40.17
2022-12-03T15:09:57.366Z,40.08
2022-12-03T15:12:24.783Z,40.90
2022-12-03T15:14:51.903Z,39.90
2022-12-03T15:17:27.848Z,39.55
2022-12-03T15:19:58.532Z,41.38
2022-12-03T15:22:25.666Z,39.85
2022-12-03T15:24:53.012Z,40.03
2022-12-03T15:27:20.071Z,39.33
2022-12-03T15:29:47.116Z,40.22
2022-12-03T15:32:14.514Z,38.90
2022-12-03T15:34:41.685Z,40.30
2022-12-03T15:37:09.215Z,41.50
2022-12-03T15:39:37.597Z,39.60
2022-12-03T15:42:04.815Z,39.33
2022-12-03T15:44:31.945Z,42.65
2022-12-03T15:46:59.067Z,38.10
2022-12-03T15:49:26.199Z,37.72
2022-12-03T15:51:54.027Z,37.80
2022-12-03T15:54:21.186Z,19.33
2022-12-03T15:56:51.469Z,37.92
2022-12-03T15:59:21.327Z,40.20
2022-12-03T16:01:48.589Z,38.83
2022-12-03T16:04:15.908Z,37.72
2022-12-03T16:06:43.023Z,38.22
2022-12-03T16:09:10.430Z,36.25
2022-12-03T16:11:37.723Z,39.13
2022-12-03T16:14:04.829Z,38.40
2022-12-03T16:16:32.124Z,38.00
2022-12-03T16:18:59.404Z,39.35
2022-12-03T16:21:27.395Z,36.78
2022-12-03T16:23:55.628Z,35.45
2022-12-03T16:26:23.715Z,36.55
2022-12-03T16:28:51.029Z,34.50
2022-12-03T16:31:21.797Z,34.58
2022-12-03T16:33:49.520Z,33.15
2022-12-03T16:36:16.737Z,33.08
2022-12-03T16:38:44.021Z,33.95
2022-12-03T16:41:11.135Z,31.58
2022-12-03T16:43:38.924Z,32.83
2022-12-03T16:46:19.004Z,32.85
2022-12-03T16:48:50.158Z,36.17
2022-12-03T16:51:19.356Z,33.80
2022-12-03T16:53:46.770Z,34.88
2022-12-03T16:56:14.641Z,34.45
2022-12-03T16:58:42.027Z,34.47
2022-12-03T17:01:10.082Z,33.63
2022-12-03T17:03:37.521Z,32.42
2022-12-03T17:06:05.112Z,33.53
2022-12-03T17:08:32.247Z,34.42
2022-12-03T17:10:59.495Z,32.67
2022-12-03T17:13:26.810Z,32.45
2022-12-03T17:15:54.091Z,32.45
2022-12-03T17:18:22.848Z,31.08
2022-12-03T17:20:49.867Z,30.77
2022-12-03T17:23:17.856Z,31.15
2022-12-03T17:25:45.977Z,31.85
2022-12-03T17:28:13.724Z,29.20
2022-12-03T17:30:40.847Z,31.42
2022-12-03T17:33:08.472Z,30.70
2022-12-03T17:35:36.985Z,31.40
2022-12-03T17:38:04.996Z,32.65
2022-12-03T17:40:32.236Z,33.00
2022-12-03T17:42:59.408Z,32.25
2022-12-03T17:45:26.504Z,32.13
2022-12-03T17:47:53.593Z,33.13
2022-12-03T17:50:20.784Z,31.27
2022-12-03T17:52:47.894Z,30.80
2022-12-03T17:55:25.021Z,32.55
2022-12-03T17:58:00.955Z,32.30
2022-12-03T18:00:28.392Z,32.63
2022-12-03T18:02:55.636Z,33.58
2022-12-03T18:05:23.125Z,35.25
2022-12-03T18:07:51.064Z,36.03
2022-12-03T18:10:18.267Z,39.33
2022-12-03T18:12:45.346Z,37.90
2022-12-03T18:15:12.606Z,38.58
2022-12-03T18:17:39.711Z,37.72
2022-12-03T18:20:07.766Z,37.67
2022-12-03T18:22:35.794Z,36.88
2022-12-03T18:25:03.354Z,35.70
2022-12-03T18:27:30.508Z,37.72
2022-12-03T18:29:57.634Z,38.35
2022-12-03T18:32:29.695Z,39.22
2022-12-03T18:34:57.913Z,37.67
2022-12-03T18:37:29.844Z,38.80
2022-12-03T18:39:58.270Z,38.85
2022-12-03T18:42:25.764Z,39.60
2022-12-03T18:44:56.017Z,38.83
2022-12-03T18:47:27.928Z,39.90
2022-12-03T18:49:56.722Z,40.03
2022-12-03T18:52:25.166Z,42.45
2022-12-03T18:54:52.352Z,43.28
2022-12-03T18:57:19.403Z,42.95
2022-12-03T18:59:46.623Z,43.47
2022-12-03T19:02:45.935Z,43.15
2022-12-03T19:05:05.580Z,41.88
2022-12-03T19:07:32.761Z,26.17
2022-12-03T19:10:00.002Z,42.83
2022-12-03T19:12:26.967Z,46.67
2022-12-03T19:14:53.960Z,43.42
2022-12-03T19:17:21.678Z,41.67
2022-12-03T19:19:48.890Z,42.45
2022-12-03T19:22:16.161Z,41.65
2022-12-03T19:24:43.757Z,44.58
2022-12-03T19:27:10.955Z,43.42
2022-12-03T19:29:38.118Z,42.70
2022-12-03T19:32:05.815Z,45.17
2022-12-03T19:34:33.018Z,43.88
2022-12-03T19:37:00.142Z,46.05
2022-12-03T19:39:27.087Z,45.40
2022-12-03T19:41:54.135Z,42.60
2022-12-03T19:44:21.285Z,43.20
2022-12-03T19:46:51.690Z,43.15
2022-12-03T19:49:21.013Z,42.75
2022-12-03T19:51:48.263Z,44.85
2022-12-03T19:54:15.670Z,45.22
2022-12-03T19:56:43.090Z,44.58
2022-12-03T19:59:14.951Z,45.05
2022-12-03T20:01:43.305Z,43.90
2022-12-03T20:04:11.917Z,45.28
2022-12-03T20:06:39.547Z,44.10
2022-12-03T20:09:18.000Z,45.20
2022-12-03T20:11:46.084Z,47.40
2022-12-03T20:14:16.007Z,45.47
2022-12-03T20:16:44.966Z,44.17
2022-12-03T20:19:15.973Z,44.50
2022-12-03T20:21:44.209Z,45.90
2022-12-03T20:24:16.646Z,47.60
2022-12-03T20:26:44.091Z,46.72
2022-12-03T20:29:12.843Z,47.85
2022-12-03T20:31:40.104Z,45.58
2022-12-03T20:34:07.269Z,46.78
2022-12-03T20:36:34.491Z,46.88
2022-12-03T20:39:05.901Z,47.97
2022-12-03T20:41:36.479Z,48.05
2022-12-03T20:44:06.252Z,49.85
2022-12-03T20:46:33.671Z,49.03
2022-12-03T20:49:00.891Z,47.72
2022-12-03T20:51:30.539Z,49.85
2022-12-03T20:53:59.640Z,46.88
2022-12-03T20:56:39.274Z,48.58
2022-12-03T20:59:10.581Z,52.05
2022-12-03T21:01:38.580Z,48.20
2022-12-03T21:04:07.789Z,48.45
2022-12-03T21:06:36.847Z,51.78
2022-12-03T21:09:09.520Z,51.67
2022-12-03T21:11:41.423Z,52.50
2022-12-03T21:14:11.091Z,49.28
2022-12-03T21:19:29.272Z,49.13
2022-12-03T21:21:56.554Z,49.70
2022-12-03T21:24:23.679Z,49.80
2022-12-03T21:26:50.871Z,53.85
2022-12-03T21:29:18.192Z,49.80
2022-12-03T21:31:45.409Z,26.75
2022-12-03T21:34:12.471Z,49.88
2022-12-03T21:36:42.189Z,49.55
2022-12-03T21:39:09.372Z,32.90
2022-12-03T21:41:36.610Z,50.88
2022-12-03T21:44:04.418Z,49.80
2022-12-03T21:47:12.689Z,50.78
2022-12-03T21:49:20.161Z,50.92
2022-12-03T21:51:47.364Z,27.27
2022-12-03T21:54:15.352Z,51.28
2022-12-03T21:56:42.434Z,50.25
2022-12-03T21:59:09.564Z,51.70
2022-12-03T22:01:36.612Z,52.25
2022-12-03T22:04:03.813Z,21.80
2022-12-03T22:06:30.976Z,49.22
2022-12-03T22:08:58.357Z,51.42
2022-12-03T22:11:25.374Z,47.70
2022-12-03T22:13:54.466Z,50.80
2022-12-03T22:16:21.752Z,51.65
2022-12-03T22:18:49.376Z,51.72
2022-12-03T22:21:19.982Z,51.70
2022-12-03T22:23:47.275Z,52.80
2022-12-03T22:26:17.893Z,51.85
2022-12-03T22:28:47.900Z,52.33
2022-12-03T22:31:17.405Z,33.55
2022-12-03T22:33:48.285Z,52.85
2022-12-03T22:36:21.069Z,52.05
2022-12-03T22:38:52.970Z,53.13
2022-12-03T22:41:20.239Z,51.05
2022-12-03T22:43:48.598Z,52.20
2022-12-03T22:46:17.235Z,52.35
2022-12-03T22:48:46.040Z,50.45
2022-12-03T22:51:17.304Z,52.72
2022-12-03T22:53:44.569Z,51.95
2022-12-03T22:56:12.018Z,52.55
2022-12-03T22:58:39.872Z,53.17
2022-12-03T23:01:08.171Z,51.78
2022-12-03T23:03:36.610Z,53.05
2022-12-03T23:06:11.035Z,52.25
2022-12-03T23:08:38.262Z,54.80
2022-12-03T23:11:05.721Z,51.65
2022-12-03T23:13:32.836Z,55.78
2022-12-03T23:15:59.896Z,53.28
2022-12-03T23:18:27.207Z,56.35
2022-12-03T23:20:56.356Z,52.35
2022-12-03T23:23:26.301Z,53.45
2022-12-03T23:26:07.120Z,28.98
2022-12-03T23:28:37.571Z,53.47
2022-12-03T23:31:05.841Z,53.65
2022-12-03T23:33:38.144Z,54.15
2022-12-03T23:36:07.023Z,56.33
2022-12-03T23:38:34.220Z,54.35
2022-12-03T23:41:11.102Z,53.10
2022-12-03T23:43:39.516Z,55.42
2022-12-03T23:46:20.194Z,54.08
2022-12-03T23:48:47.431Z,53.25
2022-12-03T23:51:21.747Z,56.28
2022-12-03T23:53:49.018Z,51.97
2022-12-03T23:56:20.586Z,34.15
2022-12-03T23:58:48.062Z,55.28
